Time;durP1;ratioP1;P1;durP2;ratioP2;P2;SDS_P1;SDS_P2;PMS_P1;PMS_P2;Temp;Humidity;BMP_temperature;BMP_pressure;BME280_temperature;BME280_humidity;BME280_pressure;Samples;Min_cycle;Max_cycle;Signal;HPM_P1;HPM_P2
2023/06/24 00:00:07;;;;;;;;;;;;;;;24.72;71.09;99544.56;329375;29;1276;-80
2023/06/24 00:00:18;;;;;;;;;;;;;;;24.70;70.93;99543.03;329187;29;1601;-80
2023/06/24 00:00:29;;;;;;;;;;;;;;;24.64;70.97;99544.53;328869;30;768;-80
2023/06/24 00:00:39;;;;;;;;;;;;;;;24.61;70.88;99536.81;329357;29;1341;-80
2023/06/24 00:00:52;;;;;;;;;;;;;;;24.54;71.26;99546.44;330628;29;1204;-80
2023/06/24 00:01:02;;;;;;;;;;;;;;;24.48;71.26;99541.69;330154;29;1765;-80
2023/06/24 00:01:13;;;;;;;;;;;;;;;24.48;71.18;99542.53;325219;30;2374;-80
2023/06/24 00:01:23;;;;;;;;;;;;;;;24.48;71.38;99537.19;322391;30;900;-80
2023/06/24 00:01:33;;;;;;;;;;;;;;;24.47;71.31;99545.38;321389;30;2146;-80
2023/06/24 00:01:44;;;;;;;;;;;;;;;24.47;71.22;99540.84;320907;30;2261;-80
2023/06/24 00:01:55;;;;;;;;;;;;;;;24.48;71.47;99541.69;321032;30;1171;-80
2023/06/24 00:02:05;;;;;;;;;;;;;;;24.50;71.27;99547.75;324767;30;788;-80
2023/06/24 00:02:16;;;;;;;;;;;;;;;24.49;71.43;99544.22;322426;30;2538;-80
2023/06/24 00:02:26;;;;;;;;;;;;;;;24.51;71.44;99547.59;321532;30;1786;-80
2023/06/24 00:02:36;;;;;;;;;;;;;;;24.53;71.32;99553.63;326021;30;1400;-80
2023/06/24 00:02:47;;;;;;;;;;;;;;;24.57;71.14;99542.63;325339;30;1341;-80
2023/06/24 00:03:00;;;;;;;;;;;;;;;24.58;71.41;99545.16;322536;30;2054;-80
2023/06/24 00:03:13;;;;;;;;;;;;;;;24.61;71.07;99550.19;319650;30;3167;-80
2023/06/24 00:03:23;;;;;;;;;;;;;;;24.63;71.18;99542.00;319415;30;1173;-80
2023/06/24 00:03:37;;;;;;;;;;;;;;;24.64;71.17;99547.22;317383;30;3108;-80
2023/06/24 00:03:48;;;;;;;;;;;;;;;24.65;70.71;99543.53;316615;31;3041;-80
2023/06/24 00:03:58;;;;;;;;;;;;;;;24.66;70.72;99545.22;315907;31;3098;-80
2023/06/24 00:04:08;;;;;;;;;;;;;;;24.67;70.92;99546.06;314683;31;3350;-80
2023/06/24 00:04:20;;;;;;;;;;;;;;;24.63;70.80;99542.00;315077;31;3130;-80
2023/06/24 00:04:30;;;;;;;;;;;;;;;24.62;71.16;99545.69;315126;31;3460;-80
2023/06/24 00:04:41;;;;;;;;;;;;;;;24.59;71.11;99548.66;315504;31;2857;-80
2023/06/24 00:04:54;;;;;;;;;;;;;;;24.58;71.21;99542.47;317550;31;1006;-80
2023/06/24 00:05:05;;;;;;;;;;;;;;;24.59;71.19;99549.50;315947;31;2274;-80
2023/06/24 00:05:16;;;;;;;;;;;;;;;24.59;71.20;99544.16;315055;31;2475;-79
2023/06/24 00:05:26;;;;;;;;;;;;;;;24.60;70.84;99540.47;311925;31;3205;-79
2023/06/24 00:05:38;;;;;;;;;;;;;;;24.62;71.08;99546.53;309774;31;1333;-79
2023/06/24 00:05:49;;;;;;;;;;;;;;;24.64;71.17;99541.84;304423;31;4868;-79
2023/06/24 00:06:03;;;;;;;;;;;;;;;24.67;70.76;99546.06;306080;32;5074;-79
2023/06/24 00:06:18;;;;;;;;;;;;;;;24.67;71.06;99546.06;303849;32;4528;-79
2023/06/24 00:06:28;;;;;;;;;;;;;;;24.66;70.96;99545.22;300666;32;3976;-79
2023/06/24 00:06:39;;;;;;;;;;;;;;;24.67;70.79;99538.88;300262;32;1283;-79
2023/06/24 00:06:52;;;;;;;;;;;;;;;24.69;70.74;99539.56;300307;32;959;-79
2023/06/24 00:07:02;;;;;;;;;;;;;;;24.70;70.69;99543.88;297522;33;3526;-79
2023/06/24 00:07:12;;;;;;;;;;;;;;;24.71;70.64;99542.06;295339;33;3393;-79
2023/06/24 00:07:23;;;;;;;;;;;;;;;24.72;70.84;99533.03;294475;33;1115;-79
2023/06/24 00:07:35;;;;;;;;;;;;;;;24.74;70.78;99541.75;294188;33;4288;-79
2023/06/24 00:07:47;;;;;;;;;;;;;;;24.74;70.63;99541.75;292849;33;4872;-79
2023/06/24 00:07:57;;;;;;;;;;;;;;;24.71;71.03;99534.03;292528;33;7071;-79
2023/06/24 00:08:07;;;;;;;;;;;;;;;24.70;70.84;99538.53;292147;33;1352;-79
2023/06/24 00:08:19;;;;;;;;;;;;;;;24.71;70.75;99534.03;290109;33;6555;-81
2023/06/24 00:08:34;;;;;;;;;;;;;;;24.72;70.69;99535.69;292046;33;6334;-80
2023/06/24 00:08:44;;;;;;;;;;;;;;;24.70;70.78;99541.22;290302;33;6155;-80
2023/06/24 00:09:00;;;;;;;;;;;;;;;24.64;70.79;99536.50;288245;34;6099;-80
2023/06/24 00:09:10;;;;;;;;;;;;;;;24.52;71.28;99535.06;287287;34;4471;-80
2023/06/24 00:09:20;;;;;;;;;;;;;;;24.42;71.73;99534.28;287534;34;1217;-80
2023/06/24 00:09:31;;;;;;;;;;;;;;;24.37;71.81;99539.25;286532;34;5815;-80
2023/06/24 00:09:41;;;;;;;;;;;;;;;24.32;71.58;99529.00;285239;34;6726;-79
2023/06/24 00:09:51;;;;;;;;;;;;;;;24.33;71.82;99532.53;286473;34;1322;-79
2023/06/24 00:10:03;;;;;;;;;;;;;;;24.30;71.68;99528.31;281867;34;7857;-79
2023/06/24 00:10:13;;;;;;;;;;;;;;;24.31;71.94;99534.50;281639;34;10631;-79
2023/06/24 00:10:24;;;;;;;;;;;;;;;24.31;71.93;99532.66;282047;35;1434;-79
2023/06/24 00:10:34;;;;;;;;;;;;;;;24.32;72.15;99534.34;277071;35;10039;-78
2023/06/24 00:12:34;;;;;;;;;;;;;;;24.25;72.06;99527.09;2504139;27;19933;-79
2023/06/24 00:12:44;;;;;;;;;;;;;;;24.19;71.96;99526.69;353252;28;1207;-79
2023/06/24 00:12:55;;;;;;;;;;;;;;;24.21;72.11;99524.72;350422;28;1426;-79
2023/06/24 00:13:05;;;;;;;;;;;;;;;24.25;72.40;99532.44;349425;28;827;-79
2023/06/24 00:13:15;;;;;;;;;;;;;;;24.27;72.05;99527.78;349088;28;1276;-79
2023/06/24 00:13:26;;;;;;;;;;;;;;;24.31;72.17;99529.16;347046;28;3326;-79
2023/06/24 00:13:37;;;;;;;;;;;;;;;24.32;71.92;99526.31;347833;28;4578;-79
2023/06/24 00:13:47;;;;;;;;;;;;;;;24.36;71.88;99526.88;348761;28;4812;-79
2023/06/24 00:13:57;;;;;;;;;;;;;;;24.37;71.76;99524.03;350504;28;876;-79
2023/06/24 00:14:07;;;;;;;;;;;;;;;24.41;71.48;99532.59;349683;28;4646;-79
2023/06/24 00:14:18;;;;;;;;;;;;;;;24.43;71.61;99527.94;347664;28;1207;-79
2023/06/24 00:14:28;;;;;;;;;;;;;;;24.45;71.56;99526.78;349182;28;1347;-79
2023/06/24 00:14:38;;;;;;;;;;;;;;;24.48;71.20;99528.31;349004;28;1215;-79
2023/06/24 00:14:49;;;;;;;;;;;;;;;24.50;71.21;99534.38;347815;28;825;-79
2023/06/24 00:15:00;;;;;;;;;;;;;;;24.52;71.17;99527.03;348554;28;1527;-79
2023/06/24 00:15:10;;;;;;;;;;;;;;;24.53;71.22;99534.91;350492;28;1223;-79
2023/06/24 00:15:20;;;;;;;;;;;;;;;24.55;71.20;99524.03;349527;28;1516;-79
2023/06/24 00:15:30;;;;;;;;;;;;;;;24.57;72.01;99531.91;349012;28;2484;-79
2023/06/24 00:15:42;;;;;;;;;;;;;;;24.58;71.57;99534.44;346567;28;1199;-79
2023/06/24 00:15:52;;;;;;;;;;;;;;;24.56;71.08;99528.41;349040;28;1365;-79
2023/06/24 00:16:03;;;;;;;;;;;;;;;24.52;71.03;99535.06;349183;28;863;-79
2023/06/24 00:16:13;;;;;;;;;;;;;;;24.43;70.65;99527.94;351167;28;1204;-79
2023/06/24 00:16:27;;;;;;;;;;;;;;;24.35;71.25;99525.19;350402;28;988;-79
2023/06/24 00:16:37;;;;;;;;;;;;;;;24.27;71.39;99531.28;348559;28;2000;-79
2023/06/24 00:16:51;;;;;;;;;;;;;;;24.25;71.88;99530.63;350354;28;1200;-79
2023/06/24 00:17:01;;;;;;;;;;;;;;;24.26;71.91;99536.81;350133;28;1405;-79
2023/06/24 00:17:11;;;;;;;;;;;;;;;24.27;71.78;99527.78;347618;28;1207;-79
2023/06/24 00:17:21;;;;;;;;;;;;;;;24.28;71.67;99521.44;346400;28;1254;-79
2023/06/24 00:17:31;;;;;;;;;;;;;;;24.28;71.58;99526.78;347529;28;1133;-80
2023/06/24 00:17:42;;;;;;;;;;;;;;;24.28;71.55;99524.09;349065;28;1215;-80
2023/06/24 00:17:52;;;;;;;;;;;;;;;24.27;71.11;99525.09;346394;28;1226;-80
2023/06/24 00:18:05;;;;;;;;;;;;;;;24.28;71.32;99526.78;347737;28;1380;-79
2023/06/24 00:18:16;;;;;;;;;;;;;;;24.31;71.43;99526.47;348727;28;1345;-79
2023/06/24 00:18:29;;;;;;;;;;;;;;;24.34;71.10;99528.84;345392;28;1304;-78
2023/06/24 00:18:41;;;;;;;;;;;;;;;24.35;71.18;99522.50;344601;28;1309;-78
2023/06/24 00:18:52;;;;;;;;;;;;;;;24.38;71.06;99527.56;344947;28;1111;-78
2023/06/24 00:19:03;;;;;;;;;;;;;;;24.40;70.99;99530.91;347484;28;813;-78
2023/06/24 00:19:13;;;;;;;;;;;;;;;24.40;71.26;99522.88;348976;28;1326;-78
2023/06/24 00:19:24;;;;;;;;;;;;;;;24.42;70.80;99529.78;347714;28;1104;-78
2023/06/24 00:19:34;;;;;;;;;;;;;;;24.42;71.03;99531.59;349138;28;776;-78
2023/06/24 00:19:44;;;;;;;;;;;;;;;24.41;71.07;99532.59;346331;28;1192;-79
2023/06/24 00:19:54;;;;;;;;;;;;;;;24.43;70.91;99527.94;346320;28;1406;-79
2023/06/24 00:20:07;;;;;;;;;;;;;;;24.44;70.78;99525.09;349092;28;781;-80
2023/06/24 00:20:20;;;;;;;;;;;;;;;24.44;71.04;99524.28;347678;28;1441;-79
2023/06/24 00:20:30;;;;;;;;;;;;;;;24.46;71.07;99524.97;348098;28;1378;-79
2023/06/24 00:20:43;;;;;;;;;;;;;;;24.48;71.40;99528.31;344550;28;1444;-79
2023/06/24 00:20:53;;;;;;;;;;;;;;;24.49;71.41;99522.81;342342;28;1186;-80
2023/06/24 00:21:04;;;;;;;;;;;;;;;24.51;71.21;99520.00;346681;28;1447;-80
2023/06/24 00:21:16;;;;;;;;;;;;;;;24.53;71.03;99518.84;342620;28;1354;-79
2023/06/24 00:21:29;;;;;;;;;;;;;;;24.56;71.04;99523.03;341945;28;1946;-79
2023/06/24 00:21:40;;;;;;;;;;;;;;;24.57;70.99;99522.06;341027;28;1387;-78
2023/06/24 00:21:51;;;;;;;;;;;;;;;24.57;70.93;99522.06;342286;28;817;-78
2023/06/24 00:22:03;;;;;;;;;;;;;;;24.58;70.57;99521.06;340994;29;841;-80
2023/06/24 00:22:14;;;;;;;;;;;;;;;24.58;70.55;99523.72;338343;29;1125;-80
2023/06/24 00:22:24;;;;;;;;;;;;;;;24.59;70.33;99519.22;337979;29;1560;-80
2023/06/24 00:22:34;;;;;;;;;;;;;;;24.59;70.24;99520.06;333152;29;1284;-80
2023/06/24 00:22:48;;;;;;;;;;;;;;;24.59;70.26;99522.75;332241;29;1659;-80
2023/06/24 00:22:58;;;;;;;;;;;;;;;24.60;70.54;99518.22;332524;29;1863;-80
2023/06/24 00:23:09;;;;;;;;;;;;;;;24.60;70.56;99519.06;333110;29;3388;-80
2023/06/24 00:23:24;;;;;;;;;;;;;;;24.61;70.64;99519.91;336048;29;4569;-80
2023/06/24 00:23:34;;;;;;;;;;;;;;;24.59;70.38;99520.06;329706;30;1253;-79
2023/06/24 00:23:44;;;;;;;;;;;;;;;24.59;70.28;99522.75;328972;29;3270;-79
2023/06/24 00:23:58;;;;;;;;;;;;;;;24.60;70.34;99523.59;328434;29;1628;-79
2023/06/24 00:24:09;;;;;;;;;;;;;;;24.56;69.63;99512.34;330668;29;1431;-79
2023/06/24 00:24:19;;;;;;;;;;;;;;;24.53;69.82;99518.00;334312;29;1332;-79
2023/06/24 00:24:30;;;;;;;;;;;;;;;24.48;69.93;99521.13;333529;29;1593;-79
2023/06/24 00:24:42;;;;;;;;;;;;;;;24.38;70.51;99524.88;333174;29;1994;-79
2023/06/24 00:24:52;;;;;;;;;;;;;;;24.31;70.76;99518.44;334572;29;834;-79
2023/06/24 00:25:05;;;;;;;;;;;;;;;24.28;70.84;99516.06;335244;29;2825;-79
2023/06/24 00:25:15;;;;;;;;;;;;;;;24.27;71.11;99522.44;332316;29;2360;-79
2023/06/24 00:25:25;;;;;;;;;;;;;;;24.27;71.21;99514.41;330383;29;2103;-79
2023/06/24 00:25:35;;;;;;;;;;;;;;;24.25;71.01;99516.38;328211;30;1240;-79
2023/06/24 00:25:46;;;;;;;;;;;;;;;24.24;71.16;99517.38;331031;29;2733;-79
2023/06/24 00:25:56;;;;;;;;;;;;;;;24.23;70.90;99510.34;329087;29;2467;-79
2023/06/24 00:26:06;;;;;;;;;;;;;;;24.24;70.77;99517.38;331946;29;1247;-79
2023/06/24 00:26:17;;;;;;;;;;;;;;;24.22;70.92;99517.53;333114;29;2009;-79
2023/06/24 00:26:27;;;;;;;;;;;;;;;24.20;70.97;99522.19;333345;29;1568;-79
2023/06/24 00:26:37;;;;;;;;;;;;;;;24.21;71.13;99519.34;331842;29;1223;-79
2023/06/24 00:26:47;;;;;;;;;;;;;;;24.19;71.16;99518.66;331325;29;2254;-79
2023/06/24 00:26:57;;;;;;;;;;;;;;;24.22;71.07;99520.19;329166;29;2418;-79
2023/06/24 00:27:08;;;;;;;;;;;;;;;24.23;71.62;99521.03;327185;30;946;-79
2023/06/24 00:27:18;;;;;;;;;;;;;;;24.24;71.56;99517.38;326473;30;2745;-80
2023/06/24 00:27:28;;;;;;;;;;;;;;;24.24;71.02;99520.91;324740;30;3024;-79
2023/06/24 00:27:38;;;;;;;;;;;;;;;24.21;70.71;99529.22;325409;29;2790;-79
2023/06/24 00:27:49;;;;;;;;;;;;;;;24.17;70.88;99517.13;323286;30;1400;-79
2023/06/24 00:27:59;;;;;;;;;;;;;;;24.16;70.98;99526.16;323852;30;3395;-79
2023/06/24 00:28:09;;;;;;;;;;;;;;;24.17;70.97;99517.97;323499;30;3872;-79
2023/06/24 00:28:20;;;;;;;;;;;;;;;24.19;70.80;99521.34;324560;30;1200;-79
2023/06/24 00:28:30;;;;;;;;;;;;;;;24.23;70.76;99521.88;323626;30;2407;-79
2023/06/24 00:28:40;;;;;;;;;;;;;;;24.26;70.85;99521.59;327044;30;2273;-79
2023/06/24 00:28:51;;;;;;;;;;;;;;;24.27;70.78;99523.25;325854;30;1358;-81
2023/06/24 00:29:01;;;;;;;;;;;;;;;24.25;70.68;99519.06;325159;30;3043;-80
2023/06/24 00:29:11;;;;;;;;;;;;;;;24.21;70.47;99524.72;324636;30;2989;-80
2023/06/24 00:29:21;;;;;;;;;;;;;;;24.20;70.74;99523.03;324424;30;1489;-80
2023/06/24 00:29:32;;;;;;;;;;;;;;;24.20;70.84;99523.03;324218;30;3837;-80
2023/06/24 00:29:42;;;;;;;;;;;;;;;24.15;71.07;99519.13;321746;30;4066;-80
2023/06/24 00:29:52;;;;;;;;;;;;;;;24.12;70.82;99522.94;322354;30;1299;-80
2023/06/24 00:30:03;;;;;;;;;;;;;;;24.10;71.01;99522.25;325000;30;3979;-80
2023/06/24 00:30:13;;;;;;;;;;;;;;;24.10;71.38;99521.41;325936;30;4384;-79
2023/06/24 00:30:23;;;;;;;;;;;;;;;24.10;71.19;99522.25;324703;30;891;-79
2023/06/24 00:30:33;;;;;;;;;;;;;;;24.11;71.21;99523.94;323425;30;1393;-79
2023/06/24 00:30:44;;;;;;;;;;;;;;;24.13;70.73;99521.94;320206;30;3166;-79
2023/06/24 00:30:54;;;;;;;;;;;;;;;24.14;70.81;99520.97;316087;30;2850;-79
2023/06/24 00:31:04;;;;;;;;;;;;;;;24.17;70.78;99520.66;317405;31;1265;-79
2023/06/24 00:31:14;;;;;;;;;;;;;;;24.19;70.85;99520.50;316681;30;4071;-79
2023/06/24 00:31:25;;;;;;;;;;;;;;;24.21;70.75;99519.34;314145;31;4200;-79
2023/06/24 00:31:35;;;;;;;;;;;;;;;24.23;70.64;99515.69;314330;31;1171;-79
2023/06/24 00:31:45;;;;;;;;;;;;;;;24.25;70.50;99519.06;313215;31;5536;-79
2023/06/24 00:31:55;;;;;;;;;;;;;;;24.27;70.34;99517.91;308592;31;5482;-79
2023/06/24 00:32:06;;;;;;;;;;;;;;;24.28;70.63;99522.28;306225;32;1302;-79
2023/06/24 00:32:16;;;;;;;;;;;;;;;24.28;70.45;99518.75;305573;32;5054;-79
2023/06/24 00:32:26;;;;;;;;;;;;;;;24.25;70.13;99521.72;303913;32;5782;-79
2023/06/24 00:32:37;;;;;;;;;;;;;;;24.25;69.97;99519.94;302421;32;3031;-79
2023/06/24 00:32:47;;;;;;;;;;;;;;;24.23;69.89;99521.03;303014;32;6120;-79
2023/06/24 00:32:57;;;;;;;;;;;;;;;24.17;70.24;99526.00;305811;31;4410;-80
2023/06/24 00:33:10;;;;;;;;;;;;;;;24.16;70.41;99518.97;307479;32;3110;-80
2023/06/24 00:33:21;;;;;;;;;;;;;;;24.14;70.42;99520.97;302333;32;833;-79
2023/06/24 00:33:35;;;;;;;;;;;;;;;24.13;70.74;99515.75;298511;32;5705;-80
2023/06/24 00:33:46;;;;;;;;;;;;;;;24.08;70.70;99520.72;295402;32;6882;-80
2023/06/24 00:33:56;;;;;;;;;;;;;;;24.03;70.85;99514.97;295834;32;7833;-80
2023/06/24 00:34:07;;;;;;;;;;;;;;;24.00;71.16;99521.47;298370;33;810;-80
2023/06/24 00:34:19;;;;;;;;;;;;;;;23.98;71.03;99515.44;292419;33;7460;-80
2023/06/24 00:34:30;;;;;;;;;;;;;;;23.98;71.25;99522.59;291462;33;6070;-79
2023/06/24 00:34:43;;;;;;;;;;;;;;;23.99;71.47;99516.28;292635;33;7396;-81
2023/06/24 00:34:57;;;;;;;;;;;;;;;23.99;71.37;99518.94;295052;33;3717;-81
2023/06/24 00:35:08;;;;;;;;;;;;;;;23.97;71.00;99520.91;290487;34;781;-81
2023/06/24 00:35:18;;;;;;;;;;;;;;;23.94;71.18;99522.06;288944;34;6236;-81
2023/06/24 00:35:28;;;;;;;;;;;;;;;23.95;71.35;99513.06;288059;33;5499;-79
2023/06/24 00:35:39;;;;;;;;;;;;;;;23.95;71.07;99523.75;284441;34;7938;-78
2023/06/24 00:35:49;;;;;;;;;;;;;;;23.92;71.18;99518.69;285638;34;1236;-78
2023/06/24 00:35:59;;;;;;;;;;;;;;;23.86;71.36;99524.63;282505;34;10630;-78
2023/06/24 00:36:11;;;;;;;;;;;;;;;23.80;71.73;99519.91;281040;34;9991;-80
2023/06/24 00:36:21;;;;;;;;;;;;;;;23.78;72.12;99519.22;277488;35;1297;-79
2023/06/24 00:38:01;;;;;;;;;;;;;;;23.78;72.30;99516.56;2499091;27;19922;-79
2023/06/24 00:38:11;;;;;;;;;;;;;;;23.80;72.03;99531.44;354607;27;1319;-79
2023/06/24 00:38:21;;;;;;;;;;;;;;;23.81;72.03;99524.28;351876;28;1438;-79
2023/06/24 00:38:32;;;;;;;;;;;;;;;23.83;72.10;99522.25;349022;28;2647;-79
2023/06/24 00:38:42;;;;;;;;;;;;;;;23.82;71.67;99529.47;350607;28;812;-80
2023/06/24 00:38:54;;;;;;;;;;;;;;;23.85;71.55;99528.31;350535;28;840;-79
2023/06/24 00:39:05;;;;;;;;;;;;;;;23.86;71.89;99524.63;349161;28;1468;-79
2023/06/24 00:39:15;;;;;;;;;;;;;;;23.87;71.96;99526.31;351691;28;1412;-80
2023/06/24 00:39:25;;;;;;;;;;;;;;;23.88;72.06;99528.00;352137;28;863;-79
2023/06/24 00:39:38;;;;;;;;;;;;;;;23.88;71.72;99519.97;350027;28;1306;-79
2023/06/24 00:39:48;;;;;;;;;;;;;;;23.90;71.58;99528.69;349103;28;1223;-79
2023/06/24 00:39:58;;;;;;;;;;;;;;;23.88;71.67;99523.50;348949;28;845;-79
2023/06/24 00:40:14;;;;;;;;;;;;;;;23.91;71.48;99521.53;346827;28;1422;-79
2023/06/24 00:40:25;;;;;;;;;;;;;;;23.94;71.92;99522.06;349045;28;1381;-79
2023/06/24 00:40:35;;;;;;;;;;;;;;;23.95;71.46;99529.09;347739;28;1224;-79
2023/06/24 00:40:46;;;;;;;;;;;;;;;23.97;71.59;99524.44;349115;28;961;-79
2023/06/24 00:40:56;;;;;;;;;;;;;;;23.99;71.03;99519.78;346084;28;1372;-79
2023/06/24 00:41:06;;;;;;;;;;;;;;;24.01;71.45;99523.16;344912;28;1240;-79
2023/06/24 00:41:18;;;;;;;;;;;;;;;24.04;71.25;99522.84;346326;28;1079;-79
2023/06/24 00:41:29;;;;;;;;;;;;;;;24.00;70.77;99521.47;349018;28;887;-79
2023/06/24 00:41:39;;;;;;;;;;;;;;;23.99;71.20;99525.13;349669;28;1279;-79
2023/06/24 00:41:50;;;;;;;;;;;;;;;23.97;71.37;99527.09;348987;28;1357;-79
2023/06/24 00:42:00;;;;;;;;;;;;;;;23.95;70.97;99526.41;344957;28;1303;-79
2023/06/24 00:42:10;;;;;;;;;;;;;;;23.96;71.39;99525.44;346359;28;1308;-79
2023/06/24 00:42:20;;;;;;;;;;;;;;;23.97;71.40;99524.44;347919;28;1028;-80
2023/06/24 00:42:31;;;;;;;;;;;;;;;23.99;71.31;99521.63;346231;28;1206;-79
2023/06/24 00:42:41;;;;;;;;;;;;;;;23.99;71.12;99525.13;348163;28;924;-79
2023/06/24 00:42:52;;;;;;;;;;;;;;;23.99;71.17;99524.28;347602;28;1474;-79
2023/06/24 00:43:02;;;;;;;;;;;;;;;23.99;71.43;99519.78;349704;28;1172;-79
2023/06/24 00:43:12;;;;;;;;;;;;;;;23.96;71.03;99533.44;347652;28;1332;-79
2023/06/24 00:43:23;;;;;;;;;;;;;;;23.94;71.41;99522.06;351764;28;1327;-79
2023/06/24 00:43:33;;;;;;;;;;;;;;;23.94;71.41;99519.38;350555;28;1103;-79
2023/06/24 00:43:43;;;;;;;;;;;;;;;23.96;71.33;99522.75;351579;28;788;-79
2023/06/24 00:43:53;;;;;;;;;;;;;;;23.96;71.15;99525.44;350257;28;1339;-79
2023/06/24 00:44:04;;;;;;;;;;;;;;;23.93;71.47;99520.38;350237;28;1212;-79
2023/06/24 00:44:14;;;;;;;;;;;;;;;23.95;71.15;99520.22;348649;28;1346;-79
2023/06/24 00:44:24;;;;;;;;;;;;;;;23.96;71.51;99525.44;347417;28;1207;-79
2023/06/24 00:44:37;;;;;;;;;;;;;;;23.98;71.20;99519.94;346317;28;1199;-79
2023/06/24 00:44:47;;;;;;;;;;;;;;;23.99;70.99;99514.44;347958;28;1242;-79
2023/06/24 00:44:57;;;;;;;;;;;;;;;24.00;71.06;99521.47;346009;28;1386;-79
2023/06/24 00:45:08;;;;;;;;;;;;;;;23.99;70.96;99517.09;345046;28;943;-79
2023/06/24 00:45:18;;;;;;;;;;;;;;;23.98;71.10;99523.44;346330;28;1303;-79
2023/06/24 00:45:30;;;;;;;;;;;;;;;23.99;71.22;99518.94;344951;28;880;-79
2023/06/24 00:45:40;;;;;;;;;;;;;;;23.99;71.28;99513.59;346166;28;1390;-79
2023/06/24 00:45:52;;;;;;;;;;;;;;;23.99;71.10;99514.44;346259;28;1349;-80
2023/06/24 00:46:02;;;;;;;;;;;;;;;24.00;70.90;99515.28;342424;28;1336;-79
2023/06/24 00:46:15;;;;;;;;;;;;;;;23.99;71.08;99514.44;339814;28;1480;-79
2023/06/24 00:46:25;;;;;;;;;;;;;;;23.98;70.87;99512.75;340747;28;1318;-79
2023/06/24 00:46:36;;;;;;;;;;;;;;;23.96;71.04;99514.72;341472;28;1627;-79
2023/06/24 00:46:46;;;;;;;;;;;;;;;23.98;71.25;99519.94;345741;28;3423;-79
2023/06/24 00:46:56;;;;;;;;;;;;;;;23.98;71.25;99515.44;344832;28;4759;-79
2023/06/24 00:47:08;;;;;;;;;;;;;;;23.99;71.00;99517.09;345240;28;5065;-79
2023/06/24 00:47:18;;;;;;;;;;;;;;;24.00;70.79;99513.44;346373;28;1306;-79
2023/06/24 00:47:30;;;;;;;;;;;;;;;24.01;71.35;99520.47;346289;28;2982;-79
2023/06/24 00:47:41;;;;;;;;;;;;;;;24.01;70.99;99517.81;346874;28;1244;-79
2023/06/24 00:47:55;;;;;;;;;;;;;;;23.98;71.09;99515.44;346126;28;1530;-79
2023/06/24 00:48:05;;;;;;;;;;;;;;;23.82;71.22;99520.59;340541;28;1897;-79
2023/06/24 00:48:16;;;;;;;;;;;;;;;23.76;71.44;99515.84;340794;28;1634;-79
2023/06/24 00:48:26;;;;;;;;;;;;;;;23.71;71.53;99515.47;341286;28;1965;-79
2023/06/24 00:48:36;;;;;;;;;;;;;;;23.71;71.83;99521.66;337690;29;1977;-79
2023/06/24 00:48:46;;;;;;;;;;;;;;;23.72;71.75;99511.81;335434;29;1392;-79
2023/06/24 00:48:57;;;;;;;;;;;;;;;23.71;71.89;99513.63;337853;29;2110;-79
2023/06/24 00:49:07;;;;;;;;;;;;;;;23.72;71.69;99514.47;337883;29;1689;-79
2023/06/24 00:49:18;;;;;;;;;;;;;;;23.73;71.70;99518.81;337117;29;846;-79
2023/06/24 00:49:28;;;;;;;;;;;;;;;23.76;71.96;99513.19;341737;28;1232;-79
2023/06/24 00:49:38;;;;;;;;;;;;;;;23.79;71.68;99520.91;344849;28;1225;-79
2023/06/24 00:49:48;;;;;;;;;;;;;;;23.79;71.61;99516.41;338908;29;1244;-78
2023/06/24 00:49:58;;;;;;;;;;;;;;;23.81;71.65;99522.44;336013;29;1974;-78
2023/06/24 00:50:11;;;;;;;;;;;;;;;23.79;71.83;99513.72;334435;29;2286;-78
2023/06/24 00:50:22;;;;;;;;;;;;;;;23.80;71.85;99511.91;331621;29;2243;-78
2023/06/24 00:50:32;;;;;;;;;;;;;;;23.80;71.57;99515.41;334012;29;846;-79
2023/06/24 00:50:45;;;;;;;;;;;;;;;23.82;71.81;99515.25;332407;29;2445;-79
2023/06/24 00:50:58;;;;;;;;;;;;;;;23.81;71.56;99522.44;331423;29;2553;-79
2023/06/24 00:51:08;;;;;;;;;;;;;;;23.81;71.84;99517.09;328683;30;2516;-79
2023/06/24 00:51:21;;;;;;;;;;;;;;;23.78;71.57;99508.53;327087;30;1359;-79
2023/06/24 00:51:32;;;;;;;;;;;;;;;23.80;71.37;99514.56;326211;30;1565;-79
2023/06/24 00:51:47;;;;;;;;;;;;;;;23.76;71.67;99514.03;326779;30;1366;-79
2023/06/24 00:52:00;;;;;;;;;;;;;;;23.77;71.75;99501.50;325772;30;2028;-79
2023/06/24 00:52:15;;;;;;;;;;;;;;;23.80;71.41;99514.56;326728;30;2738;-79
2023/06/24 00:52:25;;;;;;;;;;;;;;;23.84;71.68;99518.59;326195;30;2845;-79
2023/06/24 00:52:37;;;;;;;;;;;;;;;23.83;71.50;99509.75;324976;30;3131;-79
2023/06/24 00:52:49;;;;;;;;;;;;;;;23.83;72.19;99512.41;321067;30;1344;-79
2023/06/24 00:52:59;;;;;;;;;;;;;;;23.84;71.76;99506.06;321597;30;3231;-79
2023/06/24 00:53:09;;;;;;;;;;;;;;;23.86;71.45;99506.75;320446;30;3524;-79
2023/06/24 00:53:21;;;;;;;;;;;;;;;23.88;71.71;99511.97;317610;31;1487;-79
2023/06/24 00:53:31;;;;;;;;;;;;;;;23.90;71.57;99504.63;314219;31;1123;-80
2023/06/24 00:53:41;;;;;;;;;;;;;;;23.92;71.36;99513.34;312949;31;2276;-80
2023/06/24 00:53:55;;;;;;;;;;;;;;;23.94;71.05;99511.38;313531;31;2199;-79
2023/06/24 00:54:05;;;;;;;;;;;;;;;23.94;71.42;99505.19;311321;31;2751;-79
2023/06/24 00:54:18;;;;;;;;;;;;;;;23.93;71.21;99508.84;313001;31;761;-79
2023/06/24 00:54:30;;;;;;;;;;;;;;;23.90;71.37;99504.63;309205;31;3396;-79
2023/06/24 00:54:43;;;;;;;;;;;;;;;23.84;71.28;99513.25;311116;31;4047;-79
2023/06/24 00:54:55;;;;;;;;;;;;;;;23.77;71.88;99514.88;308086;31;4126;-79
2023/06/24 00:55:06;;;;;;;;;;;;;;;23.67;72.00;99514.06;304324;31;4398;-79
2023/06/24 00:55:17;;;;;;;;;;;;;;;23.66;72.03;99518.56;309011;31;1260;-79
2023/06/24 00:55:28;;;;;;;;;;;;;;;23.64;72.35;99515.22;307553;31;4210;-79
2023/06/24 00:55:39;;;;;;;;;;;;;;;23.57;72.22;99518.63;305182;32;4319;-79
2023/06/24 00:55:49;;;;;;;;;;;;;;;23.49;72.36;99517.50;303242;32;1405;-79
2023/06/24 00:56:02;;;;;;;;;;;;;;;23.50;72.35;99518.31;303026;32;3268;-79
2023/06/24 00:56:13;;;;;;;;;;;;;;;23.50;72.49;99513.00;302237;32;3042;-79
2023/06/24 00:56:38;;;;;;;;;;;;;;;23.51;72.55;99507.50;301718;32;5025;-79
2023/06/24 00:56:48;;;;;;;;;;;;;;;23.57;72.67;99514.13;302145;32;3140;-79
2023/06/24 00:57:00;;;;;;;;;;;;;;;23.55;72.29;99511.59;298639;32;5736;-79
2023/06/24 00:57:10;;;;;;;;;;;;;;;23.55;72.13;99511.59;295063;33;5698;-79
2023/06/24 00:57:23;;;;;;;;;;;;;;;23.55;72.55;99508.91;293322;33;6028;-79
2023/06/24 00:57:33;;;;;;;;;;;;;;;23.55;72.63;99510.75;290253;34;1265;-79
2023/06/24 00:57:44;;;;;;;;;;;;;;;23.51;72.29;99515.50;288514;33;5703;-79
2023/06/24 00:57:54;;;;;;;;;;;;;;;23.49;72.64;99512.16;287091;34;6261;-78
2023/06/24 00:58:04;;;;;;;;;;;;;;;23.49;72.36;99508.63;287479;34;1264;-79
2023/06/24 00:58:16;;;;;;;;;;;;;;;23.48;72.18;99509.63;289240;34;4783;-79
2023/06/24 00:58:26;;;;;;;;;;;;;;;23.43;72.31;99507.38;286978;34;5232;-79
2023/06/24 00:58:36;;;;;;;;;;;;;;;23.42;72.38;99511.03;284904;34;7337;-79
2023/06/24 00:58:47;;;;;;;;;;;;;;;23.39;72.32;99514.03;283756;34;1301;-79
2023/06/24 00:59:01;;;;;;;;;;;;;;;23.39;72.41;99515.88;280329;35;9583;-79
2023/06/24 00:59:14;;;;;;;;;;;;;;;23.40;72.35;99502.34;281446;34;8399;-80
2023/06/24 00:59:28;;;;;;;;;;;;;;;23.45;72.28;99508.09;281565;34;8330;-80
2023/06/24 00:59:39;;;;;;;;;;;;;;;23.48;72.27;99504.28;276867;35;8910;-80
2023/06/24 00:59:53;;;;;;;;;;;;;;;23.48;71.91;99510.47;274817;36;1365;-80
2023/06/24 01:00:08;;;;;;;;;;;;;;;23.47;72.20;99507.94;272693;36;1426;-79
2023/06/24 01:02:01;;;;;;;;;;;;;;;23.52;71.15;99511.00;2501388;27;19922;-79
2023/06/24 01:02:12;;;;;;;;;;;;;;;23.48;71.19;99507.78;353205;28;1205;-79
2023/06/24 01:02:27;;;;;;;;;;;;;;;23.47;71.17;99505.25;350451;28;1315;-79
2023/06/24 01:02:38;;;;;;;;;;;;;;;23.51;71.16;99502.16;350596;28;835;-79
2023/06/24 01:02:48;;;;;;;;;;;;;;;23.51;70.85;99504.81;350469;28;1216;-79
2023/06/24 01:02:58;;;;;;;;;;;;;;;23.48;70.95;99510.47;348959;28;1207;-79
2023/06/24 01:03:09;;;;;;;;;;;;;;;23.47;70.82;99503.44;350382;28;1259;-79
2023/06/24 01:03:19;;;;;;;;;;;;;;;23.44;71.40;99505.56;350529;28;796;-79
2023/06/24 01:03:29;;;;;;;;;;;;;;;23.37;71.33;99508.00;351579;28;1325;-79
2023/06/24 01:03:40;;;;;;;;;;;;;;;23.40;71.18;99507.69;350511;28;792;-79
2023/06/24 01:03:50;;;;;;;;;;;;;;;23.41;71.44;99504.03;350926;28;1223;-79
2023/06/24 01:04:03;;;;;;;;;;;;;;;23.42;71.27;99505.72;349034;28;1255;-79